sensor_id;sensor_type;location;lat;lon;timestamp;P1;durP1;ratioP1;P2;durP2;ratioP2
18206;SDS011;9229;52.354;20.886;2023-09-19T00:02:11;15.82;;;11.32;;
18206;SDS011;9229;52.354;20.886;2023-09-19T00:07:17;14.68;;;10.77;;
18206;SDS011;9229;52.354;20.886;2023-09-19T00:12:23;17.38;;;12.07;;
18206;SDS011;9229;52.354;20.886;2023-09-19T00:17:28;17.95;;;12.32;;
18206;SDS011;9229;52.354;20.886;2023-09-19T00:22:32;17.90;;;11.10;;
18206;SDS011;9229;52.354;20.886;2023-09-19T00:27:36;18.42;;;11.50;;
18206;SDS011;9229;52.354;20.886;2023-09-19T00:32:42;19.00;;;10.65;;
18206;SDS011;9229;52.354;20.886;2023-09-19T00:37:47;16.38;;;11.45;;
18206;SDS011;9229;52.354;20.886;2023-09-19T00:42:51;19.83;;;11.20;;
18206;SDS011;9229;52.354;20.886;2023-09-19T00:47:59;20.00;;;11.38;;
18206;SDS011;9229;52.354;20.886;2023-09-19T00:53:12;16.45;;;11.25;;
18206;SDS011;9229;52.354;20.886;2023-09-19T00:58:26;15.05;;;10.48;;
18206;SDS011;9229;52.354;20.886;2023-09-19T01:03:37;16.13;;;11.32;;
18206;SDS011;9229;52.354;20.886;2023-09-19T01:08:46;15.73;;;11.43;;
18206;SDS011;9229;52.354;20.886;2023-09-19T01:13:55;16.55;;;11.98;;
18206;SDS011;9229;52.354;20.886;2023-09-19T01:19:16;21.35;;;11.75;;
18206;SDS011;9229;52.354;20.886;2023-09-19T01:25:01;17.23;;;11.18;;
18206;SDS011;9229;52.354;20.886;2023-09-19T01:30:29;19.45;;;12.60;;
18206;SDS011;9229;52.354;20.886;2023-09-19T01:35:44;16.95;;;11.93;;
18206;SDS011;9229;52.354;20.886;2023-09-19T01:40:50;19.30;;;12.27;;
18206;SDS011;9229;52.354;20.886;2023-09-19T01:46:07;19.77;;;11.80;;
18206;SDS011;9229;52.354;20.886;2023-09-19T01:51:20;19.85;;;12.85;;
18206;SDS011;9229;52.354;20.886;2023-09-19T01:56:32;15.43;;;11.73;;
18206;SDS011;9229;52.354;20.886;2023-09-19T02:01:40;14.20;;;11.52;;
18206;SDS011;9229;52.354;20.886;2023-09-19T02:06:45;17.75;;;12.00;;
18206;SDS011;9229;52.354;20.886;2023-09-19T02:11:50;17.95;;;12.82;;
18206;SDS011;9229;52.354;20.886;2023-09-19T02:17:01;16.10;;;12.07;;
18206;SDS011;9229;52.354;20.886;2023-09-19T02:22:07;14.05;;;11.75;;
18206;SDS011;9229;52.354;20.886;2023-09-19T02:27:13;20.85;;;12.82;;
18206;SDS011;9229;52.354;20.886;2023-09-19T02:32:21;18.80;;;11.75;;
18206;SDS011;9229;52.354;20.886;2023-09-19T02:37:24;22.23;;;12.30;;
18206;SDS011;9229;52.354;20.886;2023-09-19T02:42:26;19.48;;;12.50;;
18206;SDS011;9229;52.354;20.886;2023-09-19T02:47:32;20.98;;;12.35;;
18206;SDS011;9229;52.354;20.886;2023-09-19T02:52:41;18.80;;;12.40;;
18206;SDS011;9229;52.354;20.886;2023-09-19T02:57:48;18.55;;;12.85;;
18206;SDS011;9229;52.354;20.886;2023-09-19T03:02:54;17.52;;;12.60;;
18206;SDS011;9229;52.354;20.886;2023-09-19T03:08:06;20.52;;;13.23;;
18206;SDS011;9229;52.354;20.886;2023-09-19T03:13:15;21.60;;;12.95;;
18206;SDS011;9229;52.354;20.886;2023-09-19T03:18:22;19.83;;;12.20;;
18206;SDS011;9229;52.354;20.886;2023-09-19T03:23:27;16.65;;;12.35;;
18206;SDS011;9229;52.354;20.886;2023-09-19T03:28:34;19.75;;;12.65;;
18206;SDS011;9229;52.354;20.886;2023-09-19T03:33:40;18.67;;;12.63;;
18206;SDS011;9229;52.354;20.886;2023-09-19T03:38:43;16.60;;;12.65;;
18206;SDS011;9229;52.354;20.886;2023-09-19T03:43:47;22.05;;;13.60;;
18206;SDS011;9229;52.354;20.886;2023-09-19T03:48:54;20.38;;;13.95;;
18206;SDS011;9229;52.354;20.886;2023-09-19T03:53:57;20.67;;;12.77;;
18206;SDS011;9229;52.354;20.886;2023-09-19T03:59:01;17.63;;;11.88;;
18206;SDS011;9229;52.354;20.886;2023-09-19T04:04:05;15.88;;;12.85;;
18206;SDS011;9229;52.354;20.886;2023-09-19T04:09:13;19.50;;;12.35;;
18206;SDS011;9229;52.354;20.886;2023-09-19T04:14:17;16.02;;;12.18;;
18206;SDS011;9229;52.354;20.886;2023-09-19T04:19:28;21.95;;;12.82;;
18206;SDS011;9229;52.354;20.886;2023-09-19T04:24:39;23.60;;;13.05;;
18206;SDS011;9229;52.354;20.886;2023-09-19T04:29:43;19.95;;;12.80;;
18206;SDS011;9229;52.354;20.886;2023-09-19T04:34:52;17.95;;;12.70;;
18206;SDS011;9229;52.354;20.886;2023-09-19T04:39:54;21.40;;;12.73;;
18206;SDS011;9229;52.354;20.886;2023-09-19T04:45:14;19.13;;;12.82;;
18206;SDS011;9229;52.354;20.886;2023-09-19T04:50:21;23.85;;;13.55;;
18206;SDS011;9229;52.354;20.886;2023-09-19T04:55:28;19.13;;;12.63;;
18206;SDS011;9229;52.354;20.886;2023-09-19T05:00:31;16.50;;;11.95;;
18206;SDS011;9229;52.354;20.886;2023-09-19T05:05:36;21.02;;;12.80;;
18206;SDS011;9229;52.354;20.886;2023-09-19T05:10:43;18.02;;;12.02;;
18206;SDS011;9229;52.354;20.886;2023-09-19T05:15:49;16.33;;;11.68;;
18206;SDS011;9229;52.354;20.886;2023-09-19T05:20:59;20.45;;;11.48;;
18206;SDS011;9229;52.354;20.886;2023-09-19T05:26:06;15.80;;;11.40;;
18206;SDS011;9229;52.354;20.886;2023-09-19T05:31:08;17.17;;;10.88;;
18206;SDS011;9229;52.354;20.886;2023-09-19T05:36:18;21.23;;;11.95;;
18206;SDS011;9229;52.354;20.886;2023-09-19T05:41:22;17.25;;;11.18;;
18206;SDS011;9229;52.354;20.886;2023-09-19T05:46:25;20.70;;;11.50;;
18206;SDS011;9229;52.354;20.886;2023-09-19T05:51:31;19.80;;;11.05;;
18206;SDS011;9229;52.354;20.886;2023-09-19T05:56:34;14.07;;;10.60;;
18206;SDS011;9229;52.354;20.886;2023-09-19T06:01:37;19.25;;;10.85;;
18206;SDS011;9229;52.354;20.886;2023-09-19T06:06:43;14.23;;;10.15;;
18206;SDS011;9229;52.354;20.886;2023-09-19T06:11:53;15.05;;;10.35;;
18206;SDS011;9229;52.354;20.886;2023-09-19T06:17:03;17.38;;;11.15;;
18206;SDS011;9229;52.354;20.886;2023-09-19T06:22:11;18.40;;;11.43;;
18206;SDS011;9229;52.354;20.886;2023-09-19T06:27:21;14.43;;;10.70;;
18206;SDS011;9229;52.354;20.886;2023-09-19T06:32:26;19.10;;;11.32;;
18206;SDS011;9229;52.354;20.886;2023-09-19T06:37:31;14.40;;;10.60;;
18206;SDS011;9229;52.354;20.886;2023-09-19T06:42:37;21.10;;;11.77;;
18206;SDS011;9229;52.354;20.886;2023-09-19T06:47:40;18.60;;;11.25;;
18206;SDS011;9229;52.354;20.886;2023-09-19T06:52:45;14.52;;;10.65;;
18206;SDS011;9229;52.354;20.886;2023-09-19T06:57:52;14.48;;;11.05;;
18206;SDS011;9229;52.354;20.886;2023-09-19T07:02:55;20.08;;;11.30;;
18206;SDS011;9229;52.354;20.886;2023-09-19T07:08:04;14.57;;;11.20;;
18206;SDS011;9229;52.354;20.886;2023-09-19T07:13:11;16.95;;;12.55;;
18206;SDS011;9229;52.354;20.886;2023-09-19T07:18:13;17.90;;;11.77;;
18206;SDS011;9229;52.354;20.886;2023-09-19T07:23:22;18.67;;;12.52;;
18206;SDS011;9229;52.354;20.886;2023-09-19T07:28:26;19.70;;;11.90;;
18206;SDS011;9229;52.354;20.886;2023-09-19T07:33:30;22.15;;;12.18;;
18206;SDS011;9229;52.354;20.886;2023-09-19T07:38:34;18.85;;;12.43;;
18206;SDS011;9229;52.354;20.886;2023-09-19T07:43:38;15.73;;;12.13;;
18206;SDS011;9229;52.354;20.886;2023-09-19T07:48:42;18.48;;;11.85;;
18206;SDS011;9229;52.354;20.886;2023-09-19T07:53:51;19.45;;;13.60;;
18206;SDS011;9229;52.354;20.886;2023-09-19T07:58:55;21.10;;;13.88;;
18206;SDS011;9229;52.354;20.886;2023-09-19T08:03:59;19.90;;;13.00;;
18206;SDS011;9229;52.354;20.886;2023-09-19T08:09:03;17.60;;;12.10;;
18206;SDS011;9229;52.354;20.886;2023-09-19T08:14:11;15.85;;;12.10;;
18206;SDS011;9229;52.354;20.886;2023-09-19T08:19:18;15.48;;;11.90;;
18206;SDS011;9229;52.354;20.886;2023-09-19T08:24:30;17.00;;;11.57;;
18206;SDS011;9229;52.354;20.886;2023-09-19T08:29:34;19.60;;;12.13;;
18206;SDS011;9229;52.354;20.886;2023-09-19T08:34:39;15.85;;;11.93;;
18206;SDS011;9229;52.354;20.886;2023-09-19T08:39:43;17.92;;;11.85;;
18206;SDS011;9229;52.354;20.886;2023-09-19T08:44:46;20.55;;;13.07;;
18206;SDS011;9229;52.354;20.886;2023-09-19T08:49:50;23.30;;;14.32;;
18206;SDS011;9229;52.354;20.886;2023-09-19T08:55:00;22.67;;;13.35;;
18206;SDS011;9229;52.354;20.886;2023-09-19T09:00:10;24.08;;;13.27;;
18206;SDS011;9229;52.354;20.886;2023-09-19T09:05:18;18.02;;;13.32;;
18206;SDS011;9229;52.354;20.886;2023-09-19T09:10:25;16.70;;;12.93;;
18206;SDS011;9229;52.354;20.886;2023-09-19T09:15:28;16.63;;;13.35;;
18206;SDS011;9229;52.354;20.886;2023-09-19T09:20:37;17.20;;;12.40;;
18206;SDS011;9229;52.354;20.886;2023-09-19T09:25:51;16.65;;;12.77;;
18206;SDS011;9229;52.354;20.886;2023-09-19T09:30:59;15.82;;;12.35;;
18206;SDS011;9229;52.354;20.886;2023-09-19T09:36:03;20.27;;;12.40;;
18206;SDS011;9229;52.354;20.886;2023-09-19T09:41:08;16.27;;;11.15;;
18206;SDS011;9229;52.354;20.886;2023-09-19T09:46:16;16.33;;;10.98;;
18206;SDS011;9229;52.354;20.886;2023-09-19T09:51:36;13.30;;;9.90;;
18206;SDS011;9229;52.354;20.886;2023-09-19T10:02:27;13.30;;;9.98;;
18206;SDS011;9229;52.354;20.886;2023-09-19T10:07:39;10.95;;;9.80;;
18206;SDS011;9229;52.354;20.886;2023-09-19T10:12:49;12.63;;;8.95;;
18206;SDS011;9229;52.354;20.886;2023-09-19T10:18:00;11.00;;;8.88;;
18206;SDS011;9229;52.354;20.886;2023-09-19T10:23:09;10.55;;;7.60;;
18206;SDS011;9229;52.354;20.886;2023-09-19T10:28:19;8.73;;;7.82;;
18206;SDS011;9229;52.354;20.886;2023-09-19T10:33:27;9.63;;;7.32;;
18206;SDS011;9229;52.354;20.886;2023-09-19T10:38:43;6.97;;;6.28;;
18206;SDS011;9229;52.354;20.886;2023-09-19T10:43:49;8.43;;;6.75;;
18206;SDS011;9229;52.354;20.886;2023-09-19T10:48:57;7.28;;;6.57;;
18206;SDS011;9229;52.354;20.886;2023-09-19T10:54:01;7.13;;;6.43;;
18206;SDS011;9229;52.354;20.886;2023-09-19T10:59:14;7.10;;;6.40;;
18206;SDS011;9229;52.354;20.886;2023-09-19T11:04:21;7.10;;;6.25;;
18206;SDS011;9229;52.354;20.886;2023-09-19T11:09:43;6.53;;;5.93;;
18206;SDS011;9229;52.354;20.886;2023-09-19T11:14:48;6.90;;;6.25;;
18206;SDS011;9229;52.354;20.886;2023-09-19T11:25:43;6.32;;;5.75;;
18206;SDS011;9229;52.354;20.886;2023-09-19T11:30:51;6.68;;;5.97;;
18206;SDS011;9229;52.354;20.886;2023-09-19T11:36:04;6.93;;;6.32;;
18206;SDS011;9229;52.354;20.886;2023-09-19T11:46:53;6.82;;;6.20;;
18206;SDS011;9229;52.354;20.886;2023-09-19T11:51:57;7.15;;;6.03;;
18206;SDS011;9229;52.354;20.886;2023-09-19T11:57:01;6.68;;;6.20;;
18206;SDS011;9229;52.354;20.886;2023-09-19T12:02:06;10.18;;;6.32;;
18206;SDS011;9229;52.354;20.886;2023-09-19T12:07:13;11.10;;;6.25;;
18206;SDS011;9229;52.354;20.886;2023-09-19T12:12:21;9.00;;;6.57;;
18206;SDS011;9229;52.354;20.886;2023-09-19T12:17:36;9.55;;;6.60;;
18206;SDS011;9229;52.354;20.886;2023-09-19T12:22:40;8.48;;;7.05;;
18206;SDS011;9229;52.354;20.886;2023-09-19T12:27:44;10.00;;;6.78;;
18206;SDS011;9229;52.354;20.886;2023-09-19T12:32:51;10.27;;;7.15;;
18206;SDS011;9229;52.354;20.886;2023-09-19T12:37:54;7.55;;;6.82;;
18206;SDS011;9229;52.354;20.886;2023-09-19T12:42:57;8.02;;;7.13;;
18206;SDS011;9229;52.354;20.886;2023-09-19T12:48:20;9.60;;;7.18;;
18206;SDS011;9229;52.354;20.886;2023-09-19T12:53:33;9.68;;;7.18;;
18206;SDS011;9229;52.354;20.886;2023-09-19T12:58:50;9.68;;;7.40;;
18206;SDS011;9229;52.354;20.886;2023-09-19T13:04:14;7.65;;;6.90;;
18206;SDS011;9229;52.354;20.886;2023-09-19T13:09:21;8.30;;;7.00;;
18206;SDS011;9229;52.354;20.886;2023-09-19T13:14:25;11.57;;;7.38;;
18206;SDS011;9229;52.354;20.886;2023-09-19T13:19:40;7.90;;;7.00;;
18206;SDS011;9229;52.354;20.886;2023-09-19T13:24:49;8.25;;;7.00;;
18206;SDS011;9229;52.354;20.886;2023-09-19T13:29:52;8.07;;;6.72;;
18206;SDS011;9229;52.354;20.886;2023-09-19T13:34:55;9.32;;;6.60;;
18206;SDS011;9229;52.354;20.886;2023-09-19T13:39:58;12.07;;;7.20;;
18206;SDS011;9229;52.354;20.886;2023-09-19T13:45:00;10.73;;;7.43;;
18206;SDS011;9229;52.354;20.886;2023-09-19T13:50:04;8.07;;;6.60;;
18206;SDS011;9229;52.354;20.886;2023-09-19T13:55:08;7.70;;;6.97;;
18206;SDS011;9229;52.354;20.886;2023-09-19T14:00:10;8.68;;;6.88;;
18206;SDS011;9229;52.354;20.886;2023-09-19T14:05:18;10.90;;;8.02;;
18206;SDS011;9229;52.354;20.886;2023-09-19T14:10:21;9.70;;;6.72;;
18206;SDS011;9229;52.354;20.886;2023-09-19T14:15:23;7.97;;;6.82;;
18206;SDS011;9229;52.354;20.886;2023-09-19T14:20:31;7.05;;;6.40;;
18206;SDS011;9229;52.354;20.886;2023-09-19T14:25:33;7.00;;;6.38;;
18206;SDS011;9229;52.354;20.886;2023-09-19T14:30:36;7.30;;;6.70;;
18206;SDS011;9229;52.354;20.886;2023-09-19T14:35:40;8.63;;;7.18;;
18206;SDS011;9229;52.354;20.886;2023-09-19T14:40:41;12.48;;;6.22;;
18206;SDS011;9229;52.354;20.886;2023-09-19T14:45:43;7.22;;;6.53;;
18206;SDS011;9229;52.354;20.886;2023-09-19T14:50:48;8.27;;;6.45;;
18206;SDS011;9229;52.354;20.886;2023-09-19T14:55:51;7.03;;;6.53;;
18206;SDS011;9229;52.354;20.886;2023-09-19T15:01:01;8.48;;;7.25;;
18206;SDS011;9229;52.354;20.886;2023-09-19T15:06:07;7.65;;;6.18;;
18206;SDS011;9229;52.354;20.886;2023-09-19T15:11:09;6.55;;;5.95;;
18206;SDS011;9229;52.354;20.886;2023-09-19T15:16:13;6.85;;;6.25;;
18206;SDS011;9229;52.354;20.886;2023-09-19T15:21:18;6.90;;;6.20;;
18206;SDS011;9229;52.354;20.886;2023-09-19T15:26:20;6.40;;;5.47;;
18206;SDS011;9229;52.354;20.886;2023-09-19T15:31:22;7.07;;;5.45;;
18206;SDS011;9229;52.354;20.886;2023-09-19T15:36:26;5.50;;;5.13;;
18206;SDS011;9229;52.354;20.886;2023-09-19T15:41:29;6.03;;;5.45;;
18206;SDS011;9229;52.354;20.886;2023-09-19T15:46:32;6.85;;;4.90;;
18206;SDS011;9229;52.354;20.886;2023-09-19T15:51:37;5.75;;;5.35;;
18206;SDS011;9229;52.354;20.886;2023-09-19T15:56:40;5.05;;;4.45;;
18206;SDS011;9229;52.354;20.886;2023-09-19T16:01:43;5.30;;;4.80;;
18206;SDS011;9229;52.354;20.886;2023-09-19T16:06:47;5.15;;;4.75;;
18206;SDS011;9229;52.354;20.886;2023-09-19T16:11:49;5.38;;;4.90;;
18206;SDS011;9229;52.354;20.886;2023-09-19T16:16:51;5.57;;;5.18;;
18206;SDS011;9229;52.354;20.886;2023-09-19T16:21:54;5.30;;;5.00;;
18206;SDS011;9229;52.354;20.886;2023-09-19T16:26:56;5.68;;;5.30;;
18206;SDS011;9229;52.354;20.886;2023-09-19T16:31:59;6.55;;;5.30;;
18206;SDS011;9229;52.354;20.886;2023-09-19T16:37:03;5.97;;;5.57;;
18206;SDS011;9229;52.354;20.886;2023-09-19T16:42:05;6.20;;;5.63;;
18206;SDS011;9229;52.354;20.886;2023-09-19T16:47:08;7.88;;;5.32;;
18206;SDS011;9229;52.354;20.886;2023-09-19T16:52:15;6.25;;;5.85;;
18206;SDS011;9229;52.354;20.886;2023-09-19T16:57:17;5.72;;;5.20;;
18206;SDS011;9229;52.354;20.886;2023-09-19T17:02:22;6.00;;;5.53;;
18206;SDS011;9229;52.354;20.886;2023-09-19T17:07:26;6.47;;;5.85;;
18206;SDS011;9229;52.354;20.886;2023-09-19T17:12:28;6.00;;;5.50;;
18206;SDS011;9229;52.354;20.886;2023-09-19T17:17:30;5.97;;;5.45;;
18206;SDS011;9229;52.354;20.886;2023-09-19T17:22:35;5.35;;;4.85;;
18206;SDS011;9229;52.354;20.886;2023-09-19T17:27:38;6.30;;;5.10;;
18206;SDS011;9229;52.354;20.886;2023-09-19T17:32:40;10.68;;;5.10;;
18206;SDS011;9229;52.354;20.886;2023-09-19T17:43:15;6.35;;;4.95;;
18206;SDS011;9229;52.354;20.886;2023-09-19T17:48:17;5.47;;;4.72;;
18206;SDS011;9229;52.354;20.886;2023-09-19T17:53:21;5.10;;;4.68;;
18206;SDS011;9229;52.354;20.886;2023-09-19T17:58:23;8.23;;;5.57;;
18206;SDS011;9229;52.354;20.886;2023-09-19T18:03:25;6.38;;;4.68;;
18206;SDS011;9229;52.354;20.886;2023-09-19T18:08:28;5.28;;;4.85;;
18206;SDS011;9229;52.354;20.886;2023-09-19T18:13:34;7.80;;;5.38;;
18206;SDS011;9229;52.354;20.886;2023-09-19T18:18:36;8.13;;;5.53;;
18206;SDS011;9229;52.354;20.886;2023-09-19T18:23:39;5.30;;;4.80;;
18206;SDS011;9229;52.354;20.886;2023-09-19T18:28:41;5.30;;;4.80;;
18206;SDS011;9229;52.354;20.886;2023-09-19T18:33:45;6.22;;;4.38;;
18206;SDS011;9229;52.354;20.886;2023-09-19T18:38:49;8.70;;;4.43;;
18206;SDS011;9229;52.354;20.886;2023-09-19T18:43:53;6.78;;;4.00;;
18206;SDS011;9229;52.354;20.886;2023-09-19T18:48:54;4.47;;;3.83;;
18206;SDS011;9229;52.354;20.886;2023-09-19T18:53:58;3.75;;;3.50;;
18206;SDS011;9229;52.354;20.886;2023-09-19T18:59:03;4.43;;;3.70;;
18206;SDS011;9229;52.354;20.886;2023-09-19T19:04:14;4.18;;;3.72;;
18206;SDS011;9229;52.354;20.886;2023-09-19T19:09:21;6.57;;;3.88;;
18206;SDS011;9229;52.354;20.886;2023-09-19T19:14:25;4.07;;;3.75;;
18206;SDS011;9229;52.354;20.886;2023-09-19T19:19:28;8.38;;;4.43;;
18206;SDS011;9229;52.354;20.886;2023-09-19T19:24:35;5.28;;;3.97;;
18206;SDS011;9229;52.354;20.886;2023-09-19T19:29:38;4.40;;;4.10;;
18206;SDS011;9229;52.354;20.886;2023-09-19T19:34:40;4.70;;;4.25;;
18206;SDS011;9229;52.354;20.886;2023-09-19T19:39:52;7.03;;;4.50;;
18206;SDS011;9229;52.354;20.886;2023-09-19T19:45:03;4.28;;;3.80;;
18206;SDS011;9229;52.354;20.886;2023-09-19T19:50:10;5.80;;;4.32;;
18206;SDS011;9229;52.354;20.886;2023-09-19T19:55:14;5.75;;;4.05;;
18206;SDS011;9229;52.354;20.886;2023-09-19T20:00:17;4.45;;;4.13;;
18206;SDS011;9229;52.354;20.886;2023-09-19T20:05:20;7.63;;;5.15;;
18206;SDS011;9229;52.354;20.886;2023-09-19T20:10:24;9.73;;;5.85;;
18206;SDS011;9229;52.354;20.886;2023-09-19T20:15:26;10.18;;;6.38;;
18206;SDS011;9229;52.354;20.886;2023-09-19T20:20:30;14.40;;;8.27;;
18206;SDS011;9229;52.354;20.886;2023-09-19T20:25:34;13.80;;;8.02;;
18206;SDS011;9229;52.354;20.886;2023-09-19T20:30:37;6.60;;;5.32;;
18206;SDS011;9229;52.354;20.886;2023-09-19T20:35:40;9.35;;;6.32;;
18206;SDS011;9229;52.354;20.886;2023-09-19T20:40:44;11.63;;;7.72;;
18206;SDS011;9229;52.354;20.886;2023-09-19T20:45:47;16.40;;;6.50;;
18206;SDS011;9229;52.354;20.886;2023-09-19T20:50:49;5.93;;;5.40;;
18206;SDS011;9229;52.354;20.886;2023-09-19T20:55:53;6.15;;;5.30;;
18206;SDS011;9229;52.354;20.886;2023-09-19T21:01:01;5.55;;;4.97;;
18206;SDS011;9229;52.354;20.886;2023-09-19T21:06:04;9.43;;;4.68;;
18206;SDS011;9229;52.354;20.886;2023-09-19T21:11:12;8.68;;;5.25;;
18206;SDS011;9229;52.354;20.886;2023-09-19T21:16:15;9.45;;;5.03;;
18206;SDS011;9229;52.354;20.886;2023-09-19T21:21:17;7.45;;;4.60;;
18206;SDS011;9229;52.354;20.886;2023-09-19T21:26:22;4.88;;;4.38;;
18206;SDS011;9229;52.354;20.886;2023-09-19T21:31:24;4.63;;;3.30;;
18206;SDS011;9229;52.354;20.886;2023-09-19T21:36:26;4.22;;;3.83;;
18206;SDS011;9229;52.354;20.886;2023-09-19T21:41:34;4.20;;;3.80;;
18206;SDS011;9229;52.354;20.886;2023-09-19T21:46:36;3.45;;;3.33;;
18206;SDS011;9229;52.354;20.886;2023-09-19T21:51:39;3.33;;;3.13;;
18206;SDS011;9229;52.354;20.886;2023-09-19T21:56:42;6.28;;;3.50;;
18206;SDS011;9229;52.354;20.886;2023-09-19T22:01:45;5.03;;;4.10;;
18206;SDS011;9229;52.354;20.886;2023-09-19T22:06:47;10.93;;;4.03;;
18206;SDS011;9229;52.354;20.886;2023-09-19T22:11:51;4.45;;;3.97;;
18206;SDS011;9229;52.354;20.886;2023-09-19T22:16:54;5.57;;;4.10;;
18206;SDS011;9229;52.354;20.886;2023-09-19T22:22:00;5.43;;;4.97;;
18206;SDS011;9229;52.354;20.886;2023-09-19T22:27:04;10.55;;;5.95;;
18206;SDS011;9229;52.354;20.886;2023-09-19T22:32:06;8.90;;;6.65;;
18206;SDS011;9229;52.354;20.886;2023-09-19T22:37:09;7.82;;;6.65;;
18206;SDS011;9229;52.354;20.886;2023-09-19T22:42:13;10.27;;;6.85;;
18206;SDS011;9229;52.354;20.886;2023-09-19T22:47:17;9.65;;;7.68;;
18206;SDS011;9229;52.354;20.886;2023-09-19T22:52:18;7.72;;;6.95;;
18206;SDS011;9229;52.354;20.886;2023-09-19T22:57:23;9.82;;;7.78;;
18206;SDS011;9229;52.354;20.886;2023-09-19T23:02:25;10.10;;;6.85;;
18206;SDS011;9229;52.354;20.886;2023-09-19T23:07:28;16.35;;;7.40;;
18206;SDS011;9229;52.354;20.886;2023-09-19T23:12:32;10.77;;;6.78;;
18206;SDS011;9229;52.354;20.886;2023-09-19T23:17:34;8.00;;;6.82;;
18206;SDS011;9229;52.354;20.886;2023-09-19T23:22:36;7.65;;;6.93;;
18206;SDS011;9229;52.354;20.886;2023-09-19T23:27:42;7.97;;;6.95;;
18206;SDS011;9229;52.354;20.886;2023-09-19T23:32:50;6.90;;;6.30;;
18206;SDS011;9229;52.354;20.886;2023-09-19T23:37:52;7.80;;;6.35;;
18206;SDS011;9229;52.354;20.886;2023-09-19T23:42:56;10.93;;;6.75;;
18206;SDS011;9229;52.354;20.886;2023-09-19T23:47:59;7.40;;;5.93;;
18206;SDS011;9229;52.354;20.886;2023-09-19T23:53:01;7.78;;;6.28;;
18206;SDS011;9229;52.354;20.886;2023-09-19T23:58:07;11.40;;;6.03;;
